createdAt,value
2022-08-30T00:00:53.430Z,0.00
2022-08-30T00:01:53.420Z,0.00
2022-08-30T00:02:53.510Z,0.00
2022-08-30T00:03:53.515Z,0.00
2022-08-30T00:04:53.389Z,0.00
2022-08-30T00:05:53.383Z,0.00
2022-08-30T00:06:53.376Z,0.00
2022-08-30T00:07:53.395Z,0.00
2022-08-30T00:08:53.393Z,0.00
2022-08-30T00:09:53.373Z,0.00
2022-08-30T00:10:53.330Z,0.00
2022-08-30T00:11:53.327Z,0.00
2022-08-30T00:12:53.322Z,0.00
2022-08-30T00:13:53.304Z,0.00
2022-08-30T00:14:53.287Z,0.00
2022-08-30T00:15:53.392Z,0.00
2022-08-30T00:16:53.268Z,0.00
2022-08-30T00:17:53.280Z,0.00
2022-08-30T00:18:53.258Z,0.00
2022-08-30T00:19:53.258Z,0.00
2022-08-30T00:20:53.232Z,0.00
2022-08-30T00:21:53.224Z,0.00
2022-08-30T00:22:53.233Z,0.00
2022-08-30T00:23:53.191Z,0.00
2022-08-30T00:24:53.187Z,0.00
2022-08-30T00:25:53.170Z,0.00
2022-08-30T00:26:53.164Z,0.00
2022-08-30T00:27:53.151Z,0.00
2022-08-30T00:28:53.157Z,0.00
2022-08-30T00:29:53.130Z,0.00
2022-08-30T00:30:53.199Z,0.00
2022-08-30T00:31:53.163Z,0.00
2022-08-30T00:32:53.099Z,0.00
2022-08-30T00:33:53.102Z,0.00
2022-08-30T00:34:53.089Z,0.00
2022-08-30T00:35:53.089Z,0.00
2022-08-30T00:36:53.075Z,0.00
2022-08-30T00:37:53.057Z,0.00
2022-08-30T00:38:53.050Z,0.00
2022-08-30T00:39:53.026Z,0.00
2022-08-30T00:40:53.019Z,0.00
2022-08-30T00:41:53.006Z,0.00
2022-08-30T00:42:58.119Z,0.00
2022-08-30T00:43:54.003Z,0.00
2022-08-30T00:44:52.972Z,0.00
2022-08-30T00:45:52.992Z,0.00
2022-08-30T00:46:52.952Z,0.00
2022-08-30T00:47:52.954Z,0.00
2022-08-30T00:48:52.950Z,0.00
2022-08-30T00:49:52.922Z,0.00
2022-08-30T00:50:52.913Z,0.00
2022-08-30T00:51:52.909Z,0.00
2022-08-30T00:52:52.889Z,0.00
2022-08-30T00:53:52.898Z,0.00
2022-08-30T00:54:52.868Z,0.00
2022-08-30T00:55:52.877Z,0.00
2022-08-30T00:56:52.856Z,0.00
2022-08-30T00:57:52.839Z,0.00
2022-08-30T00:58:52.852Z,0.00
2022-08-30T00:59:52.816Z,0.00
2022-08-30T01:00:52.814Z,0.00
2022-08-30T01:01:52.898Z,0.00
2022-08-30T01:02:52.841Z,0.00
2022-08-30T01:03:52.795Z,0.00
2022-08-30T01:04:52.766Z,0.00
2022-08-30T01:05:52.758Z,0.00
2022-08-30T01:06:52.743Z,0.00
2022-08-30T01:07:52.732Z,0.00
2022-08-30T01:08:52.739Z,0.00
2022-08-30T01:09:52.712Z,0.00
2022-08-30T01:10:52.710Z,0.00
2022-08-30T01:11:52.708Z,0.00
2022-08-30T01:12:52.700Z,0.00
2022-08-30T01:13:52.671Z,0.00
2022-08-30T01:14:52.696Z,0.00
2022-08-30T01:15:52.712Z,0.00
2022-08-30T01:16:52.636Z,0.00
2022-08-30T01:17:52.643Z,0.00
2022-08-30T01:18:52.618Z,0.00
2022-08-30T01:19:52.610Z,0.00
2022-08-30T01:20:52.602Z,0.00
2022-08-30T01:21:52.617Z,0.00
2022-08-30T01:22:52.610Z,0.00
2022-08-30T01:23:52.567Z,0.00
2022-08-30T01:24:52.558Z,0.00
2022-08-30T01:25:52.547Z,0.00
2022-08-30T01:26:52.561Z,0.00
2022-08-30T01:27:52.528Z,0.00
2022-08-30T01:28:52.528Z,0.00
2022-08-30T01:29:52.502Z,0.00
2022-08-30T01:30:52.514Z,0.00
2022-08-30T01:31:52.480Z,0.00
2022-08-30T01:32:52.469Z,0.00
2022-08-30T01:33:52.483Z,0.00
2022-08-30T01:34:52.450Z,0.00
2022-08-30T01:35:52.452Z,0.00
2022-08-30T01:36:52.427Z,0.00
2022-08-30T01:37:52.423Z,0.00
2022-08-30T01:38:52.571Z,0.00
2022-08-30T01:39:52.425Z,0.00
2022-08-30T01:40:52.396Z,0.00
2022-08-30T01:41:52.376Z,0.00
2022-08-30T01:42:52.365Z,0.00
2022-08-30T01:43:52.370Z,0.00
2022-08-30T01:44:52.342Z,0.00
2022-08-30T01:45:52.414Z,0.00
2022-08-30T01:46:52.336Z,0.00
2022-08-30T01:47:52.325Z,0.00
2022-08-30T01:48:53.984Z,0.00
2022-08-30T01:49:52.294Z,0.00
2022-08-30T01:50:52.282Z,0.00
2022-08-30T01:52:00.471Z,0.00
2022-08-30T01:52:53.261Z,0.00
2022-08-30T01:53:52.265Z,0.00
2022-08-30T01:54:52.243Z,0.00
2022-08-30T01:55:52.231Z,0.00
2022-08-30T01:56:52.216Z,0.00
2022-08-30T01:57:52.209Z,0.00
2022-08-30T01:58:52.238Z,0.00
2022-08-30T01:59:52.218Z,0.00
2022-08-30T02:00:52.186Z,0.00
2022-08-30T02:01:52.243Z,0.00
2022-08-30T02:02:52.166Z,0.00
2022-08-30T02:03:52.202Z,0.00
2022-08-30T02:04:52.140Z,0.00
2022-08-30T02:05:52.141Z,0.00
2022-08-30T02:06:52.139Z,0.00
2022-08-30T02:07:52.118Z,0.00
2022-08-30T02:08:52.096Z,0.00
2022-08-30T02:09:52.084Z,0.00
2022-08-30T02:10:52.070Z,0.00
2022-08-30T02:11:52.060Z,0.00
2022-08-30T02:12:52.092Z,0.00
2022-08-30T02:13:52.049Z,0.00
2022-08-30T02:14:52.046Z,0.00
2022-08-30T02:15:52.021Z,0.00
2022-08-30T02:16:52.088Z,0.00
2022-08-30T02:17:52.026Z,0.00
2022-08-30T02:18:52.011Z,0.00
2022-08-30T02:19:52.036Z,0.00
2022-08-30T02:20:51.970Z,0.00
2022-08-30T02:21:51.959Z,0.00
2022-08-30T02:22:51.951Z,0.00
2022-08-30T02:23:51.949Z,0.00
2022-08-30T02:24:51.927Z,0.00
2022-08-30T02:25:51.917Z,0.00
2022-08-30T02:26:51.911Z,0.00
2022-08-30T02:27:51.911Z,0.00
2022-08-30T02:28:51.950Z,0.00
2022-08-30T02:29:51.873Z,0.00
2022-08-30T02:30:51.990Z,0.00
2022-08-30T02:31:51.856Z,0.00
2022-08-30T02:32:51.846Z,0.00
2022-08-30T02:33:51.851Z,0.00
2022-08-30T02:34:51.820Z,0.00
2022-08-30T02:35:51.809Z,0.00
2022-08-30T02:36:51.801Z,0.00
2022-08-30T02:37:51.805Z,0.00
2022-08-30T02:38:51.783Z,0.00
2022-08-30T02:39:51.768Z,0.00
2022-08-30T02:40:51.778Z,0.00
2022-08-30T02:41:51.753Z,0.00
2022-08-30T02:42:51.752Z,0.00
2022-08-30T02:43:51.768Z,0.00
2022-08-30T02:44:51.720Z,0.00
2022-08-30T02:45:51.807Z,0.00
2022-08-30T02:46:51.693Z,0.00
2022-08-30T02:47:51.684Z,0.00
2022-08-30T02:48:51.687Z,0.00
2022-08-30T02:49:51.664Z,0.00
2022-08-30T02:50:51.665Z,0.00
2022-08-30T02:51:51.645Z,0.00
2022-08-30T02:52:51.651Z,0.00
2022-08-30T02:53:51.658Z,0.00
2022-08-30T02:54:51.663Z,0.00
2022-08-30T02:55:51.620Z,0.00
2022-08-30T02:56:51.596Z,0.00
2022-08-30T02:57:51.591Z,0.00
2022-08-30T02:58:51.581Z,0.00
2022-08-30T02:59:51.558Z,0.00
2022-08-30T03:00:51.623Z,0.00
2022-08-30T03:01:51.537Z,0.00
2022-08-30T03:02:51.526Z,0.00
2022-08-30T03:03:51.607Z,0.00
2022-08-30T03:04:51.520Z,0.00
2022-08-30T03:05:51.514Z,0.00
2022-08-30T03:06:51.486Z,0.00
2022-08-30T03:07:51.474Z,0.00
2022-08-30T03:08:51.480Z,0.00
2022-08-30T03:09:51.465Z,0.00
2022-08-30T03:10:51.473Z,0.00
2022-08-30T03:11:51.441Z,0.00
2022-08-30T03:12:51.421Z,0.00
2022-08-30T03:13:51.429Z,0.00
2022-08-30T03:14:51.402Z,0.00
2022-08-30T03:15:51.391Z,0.00
2022-08-30T03:16:51.447Z,0.00
2022-08-30T03:17:51.384Z,0.00
2022-08-30T03:18:51.382Z,0.00
2022-08-30T03:19:51.353Z,0.00
2022-08-30T03:20:54.617Z,0.00
2022-08-30T03:21:51.332Z,0.00
2022-08-30T03:22:51.331Z,0.00
2022-08-30T03:23:51.337Z,0.00
2022-08-30T03:24:51.298Z,0.00
2022-08-30T03:25:51.289Z,0.00
2022-08-30T03:26:51.277Z,0.00
2022-08-30T03:27:51.268Z,0.00
2022-08-30T03:28:51.270Z,0.00
2022-08-30T03:29:51.247Z,0.00
2022-08-30T03:30:51.240Z,0.00
2022-08-30T03:31:53.011Z,0.00
2022-08-30T03:32:51.452Z,0.00
2022-08-30T03:33:51.239Z,0.00
2022-08-30T03:34:51.226Z,0.00
2022-08-30T03:35:51.186Z,0.00
2022-08-30T03:36:51.181Z,0.00
2022-08-30T03:37:56.147Z,0.00
2022-08-30T03:38:52.194Z,0.00
2022-08-30T03:39:51.143Z,0.00
2022-08-30T03:40:51.135Z,0.00
2022-08-30T03:41:51.126Z,0.00
2022-08-30T03:42:51.111Z,0.00
2022-08-30T03:43:51.108Z,0.00
2022-08-30T03:44:51.110Z,0.00
2022-08-30T03:45:51.162Z,0.00
2022-08-30T03:46:51.072Z,0.00
2022-08-30T03:47:51.060Z,0.00
2022-08-30T03:48:51.047Z,0.00
2022-08-30T03:49:51.054Z,0.00
2022-08-30T03:50:51.029Z,0.00
2022-08-30T03:51:51.021Z,0.00
2022-08-30T03:52:51.008Z,0.00
2022-08-30T03:53:51.001Z,0.00
2022-08-30T03:54:50.999Z,0.00
2022-08-30T03:55:50.986Z,0.00
2022-08-30T03:56:50.977Z,0.00
2022-08-30T03:57:50.959Z,0.00
2022-08-30T03:58:50.956Z,0.00
2022-08-30T03:59:50.953Z,0.00
2022-08-30T04:00:51.054Z,0.00
2022-08-30T04:01:51.001Z,0.00
2022-08-30T04:02:50.929Z,0.00
2022-08-30T04:03:50.897Z,0.00
2022-08-30T04:04:50.899Z,0.00
2022-08-30T04:05:50.878Z,0.00
2022-08-30T04:06:50.864Z,0.00
2022-08-30T04:07:50.853Z,0.00
2022-08-30T04:08:50.847Z,0.00
2022-08-30T04:09:50.853Z,0.00
2022-08-30T04:10:50.826Z,0.00
2022-08-30T04:11:50.814Z,0.00
2022-08-30T04:12:50.835Z,0.00
2022-08-30T04:13:50.815Z,0.00
2022-08-30T04:14:50.817Z,0.00
2022-08-30T04:15:50.779Z,0.00
2022-08-30T04:16:50.808Z,0.00
2022-08-30T04:17:50.753Z,0.00
2022-08-30T04:18:50.761Z,0.00
2022-08-30T04:19:50.745Z,0.00
2022-08-30T04:20:50.762Z,0.00
2022-08-30T04:21:50.714Z,0.00
2022-08-30T04:22:50.714Z,0.00
2022-08-30T04:23:50.706Z,0.00
2022-08-30T04:24:50.699Z,0.00
2022-08-30T04:25:50.685Z,0.00
2022-08-30T04:26:50.668Z,0.00
2022-08-30T04:27:50.648Z,0.00
2022-08-30T04:28:50.637Z,0.00
2022-08-30T04:29:50.643Z,0.00
2022-08-30T04:30:50.617Z,0.00
2022-08-30T04:31:50.685Z,0.00
2022-08-30T04:32:50.605Z,0.00
2022-08-30T04:33:50.596Z,0.00
2022-08-30T04:34:50.621Z,0.00
2022-08-30T04:35:50.569Z,0.00
2022-08-30T04:36:50.573Z,0.00
2022-08-30T04:37:50.567Z,0.00
2022-08-30T04:38:50.637Z,0.00
2022-08-30T04:39:50.545Z,0.00
2022-08-30T04:40:50.521Z,0.00
2022-08-30T04:41:50.528Z,0.00
2022-08-30T04:42:50.496Z,0.00
2022-08-30T04:43:50.493Z,0.00
2022-08-30T04:44:50.497Z,0.00
2022-08-30T04:45:50.537Z,0.00
2022-08-30T04:46:50.457Z,0.00
2022-08-30T04:47:50.445Z,0.00
2022-08-30T04:48:50.439Z,0.00
2022-08-30T04:49:50.440Z,0.00
2022-08-30T04:50:50.415Z,0.00
2022-08-30T04:51:50.428Z,5.62
2022-08-30T04:52:50.399Z,5.62
2022-08-30T04:53:50.382Z,5.62
2022-08-30T04:54:50.420Z,5.62
2022-08-30T04:55:50.366Z,5.62
2022-08-30T04:56:50.356Z,5.62
2022-08-30T04:57:50.344Z,5.62
2022-08-30T04:58:50.347Z,5.62
2022-08-30T04:59:50.339Z,5.62
2022-08-30T05:00:51.108Z,5.62
2022-08-30T05:01:50.404Z,5.62
2022-08-30T05:02:50.655Z,5.62
2022-08-30T05:03:50.280Z,5.62
2022-08-30T05:04:50.296Z,5.62
2022-08-30T05:05:50.262Z,5.62
2022-08-30T05:06:50.258Z,5.62
2022-08-30T05:07:50.238Z,5.62
2022-08-30T05:08:51.050Z,5.62
2022-08-30T05:09:50.242Z,5.62
2022-08-30T05:10:50.245Z,11.25
2022-08-30T05:11:50.198Z,11.25
2022-08-30T05:12:50.206Z,11.25
2022-08-30T05:13:50.187Z,11.25
2022-08-30T05:14:50.171Z,11.25
2022-08-30T05:15:50.273Z,11.25
2022-08-30T05:16:50.150Z,11.25
2022-08-30T05:17:50.144Z,16.88
2022-08-30T05:18:50.145Z,16.88
2022-08-30T05:19:50.117Z,16.88
2022-08-30T05:20:50.123Z,16.88
2022-08-30T05:21:50.097Z,16.88
2022-08-30T05:22:53.262Z,16.88
2022-08-30T05:23:50.076Z,16.88
2022-08-30T05:24:50.065Z,16.88
2022-08-30T05:25:50.072Z,16.88
2022-08-30T05:26:50.104Z,16.88
2022-08-30T05:27:50.031Z,16.88
2022-08-30T05:28:50.032Z,22.50
2022-08-30T05:29:50.011Z,22.50
2022-08-30T05:30:50.154Z,22.50
2022-08-30T05:31:50.085Z,22.50
2022-08-30T05:32:50.002Z,22.50
2022-08-30T05:33:49.977Z,22.50
2022-08-30T05:34:49.963Z,22.50
2022-08-30T05:35:49.967Z,28.12
2022-08-30T05:36:49.941Z,28.12
2022-08-30T05:37:49.934Z,28.12
2022-08-30T05:38:49.934Z,28.12
2022-08-30T05:39:51.670Z,28.12
2022-08-30T05:40:49.955Z,28.12
2022-08-30T05:41:49.906Z,28.12
2022-08-30T05:42:49.882Z,28.12
2022-08-30T05:43:49.869Z,28.12
2022-08-30T05:44:49.861Z,28.12
2022-08-30T05:45:49.866Z,28.12
2022-08-30T05:46:49.844Z,28.12
2022-08-30T05:47:49.833Z,28.12
2022-08-30T05:48:49.822Z,33.75
2022-08-30T05:49:49.839Z,33.75
2022-08-30T05:50:49.816Z,33.75
2022-08-30T05:51:49.807Z,33.75
2022-08-30T05:52:49.787Z,33.75
2022-08-30T05:53:49.772Z,33.75
2022-08-30T05:54:49.764Z,33.75
2022-08-30T05:55:49.765Z,33.75
2022-08-30T05:56:49.736Z,33.75
2022-08-30T05:57:49.730Z,33.75
2022-08-30T05:58:49.777Z,39.38
2022-08-30T05:59:49.706Z,39.38
2022-08-30T06:00:49.715Z,39.38
2022-08-30T06:01:49.764Z,39.38
2022-08-30T06:02:49.718Z,39.38
2022-08-30T06:03:49.670Z,39.38
2022-08-30T06:04:49.670Z,39.38
2022-08-30T06:05:49.723Z,39.38
2022-08-30T06:06:49.635Z,39.38
2022-08-30T06:07:49.628Z,39.38
2022-08-30T06:08:49.619Z,39.38
2022-08-30T06:09:49.604Z,39.38
2022-08-30T06:10:49.594Z,39.38
2022-08-30T06:11:49.624Z,39.38
2022-08-30T06:12:49.584Z,45.00
2022-08-30T06:13:49.581Z,45.00
2022-08-30T06:14:49.567Z,45.00
2022-08-30T06:15:49.633Z,45.00
2022-08-30T06:16:49.557Z,45.00
2022-08-30T06:17:49.520Z,45.00
2022-08-30T06:18:49.511Z,45.00
2022-08-30T06:19:49.498Z,45.00
2022-08-30T06:20:50.173Z,45.00
2022-08-30T06:21:49.517Z,45.00
2022-08-30T06:22:49.481Z,45.00
2022-08-30T06:23:49.478Z,45.00
2022-08-30T06:24:58.020Z,45.00
2022-08-30T06:25:50.453Z,45.00
2022-08-30T06:26:49.430Z,45.00
2022-08-30T06:27:53.287Z,45.00
2022-08-30T06:28:50.424Z,45.00
2022-08-30T06:29:49.397Z,45.00
2022-08-30T06:30:49.407Z,45.00
2022-08-30T06:31:49.479Z,45.00
2022-08-30T06:32:49.371Z,45.00
2022-08-30T06:33:49.377Z,45.00
2022-08-30T06:34:49.351Z,45.00
2022-08-30T06:35:58.719Z,45.00
2022-08-30T06:36:50.324Z,45.00
2022-08-30T06:37:49.322Z,45.00
2022-08-30T06:38:49.306Z,45.00
2022-08-30T06:39:49.303Z,50.62
2022-08-30T06:40:49.304Z,50.62
2022-08-30T06:41:49.274Z,50.62
2022-08-30T06:42:49.267Z,50.62
2022-08-30T06:43:49.445Z,50.62
2022-08-30T06:44:49.252Z,50.62
2022-08-30T06:45:49.278Z,50.62
2022-08-30T06:46:49.305Z,50.62
2022-08-30T06:47:49.314Z,50.62
2022-08-30T06:48:49.203Z,50.62
2022-08-30T06:49:49.194Z,50.62
2022-08-30T06:50:49.200Z,50.62
2022-08-30T06:51:49.177Z,56.25
2022-08-30T06:52:49.165Z,56.25
2022-08-30T06:53:49.158Z,56.25
2022-08-30T06:54:49.149Z,56.25
2022-08-30T06:55:49.174Z,56.25
2022-08-30T06:56:58.226Z,61.88
2022-08-30T06:57:50.109Z,61.88
2022-08-30T06:58:49.151Z,61.88
2022-08-30T06:59:49.148Z,61.88
2022-08-30T07:00:49.080Z,61.88
2022-08-30T07:01:49.137Z,61.88
2022-08-30T07:02:49.132Z,61.88
2022-08-30T07:03:49.047Z,61.88
2022-08-30T07:04:49.039Z,61.88
2022-08-30T07:05:49.028Z,61.88
2022-08-30T07:06:49.048Z,61.88
2022-08-30T07:07:49.030Z,61.88
2022-08-30T07:08:49.001Z,61.88
2022-08-30T07:09:49.003Z,61.88
2022-08-30T07:10:48.981Z,61.88
2022-08-30T07:11:48.978Z,67.50
2022-08-30T07:12:48.977Z,67.50
2022-08-30T07:13:48.943Z,67.50
2022-08-30T07:14:48.933Z,67.50
2022-08-30T07:15:48.986Z,61.88
2022-08-30T07:16:51.266Z,67.50
2022-08-30T07:17:48.907Z,67.50
2022-08-30T07:18:48.908Z,67.50
2022-08-30T07:19:48.911Z,67.50
2022-08-30T07:20:48.873Z,67.50
2022-08-30T07:21:48.883Z,67.50
2022-08-30T07:22:48.850Z,67.50
2022-08-30T07:23:53.062Z,67.50
2022-08-30T07:24:48.835Z,67.50
2022-08-30T07:25:48.816Z,67.50
2022-08-30T07:26:48.861Z,67.50
2022-08-30T07:27:48.814Z,67.50
2022-08-30T07:28:48.790Z,67.50
2022-08-30T07:29:49.777Z,67.50
2022-08-30T07:30:48.790Z,67.50
2022-08-30T07:31:48.788Z,67.50
2022-08-30T07:32:48.748Z,67.50
2022-08-30T07:33:48.737Z,67.50
2022-08-30T07:34:48.724Z,67.50
2022-08-30T07:35:49.572Z,67.50
2022-08-30T07:36:48.718Z,67.50
2022-08-30T07:37:48.713Z,73.12
2022-08-30T07:38:48.681Z,73.12
2022-08-30T07:39:48.707Z,73.12
2022-08-30T07:40:48.706Z,73.12
2022-08-30T07:41:48.673Z,73.12
2022-08-30T07:42:48.649Z,73.12
2022-08-30T07:43:48.633Z,78.75
2022-08-30T07:44:48.622Z,78.75
2022-08-30T07:45:48.612Z,78.75
2022-08-30T07:46:48.641Z,78.75
2022-08-30T07:47:48.591Z,78.75
2022-08-30T07:48:48.578Z,78.75
2022-08-30T07:49:48.639Z,73.12
2022-08-30T07:50:48.579Z,78.75
2022-08-30T07:51:48.573Z,78.75
2022-08-30T07:52:48.558Z,78.75
2022-08-30T07:53:48.531Z,78.75
2022-08-30T07:54:48.535Z,78.75
2022-08-30T07:55:48.508Z,78.75
2022-08-30T07:56:48.516Z,78.75
2022-08-30T07:57:48.488Z,78.75
2022-08-30T07:58:48.757Z,78.75
2022-08-30T07:59:48.480Z,78.75
2022-08-30T08:00:48.461Z,78.75
2022-08-30T08:01:48.536Z,73.12
2022-08-30T08:02:48.539Z,73.12
2022-08-30T08:03:48.430Z,73.12
2022-08-30T08:04:48.427Z,73.12
2022-08-30T08:05:48.412Z,67.50
2022-08-30T08:06:48.415Z,73.12
2022-08-30T08:07:48.385Z,73.12
2022-08-30T08:08:48.375Z,73.12
2022-08-30T08:09:48.391Z,73.12
2022-08-30T08:10:48.380Z,67.50
2022-08-30T08:11:48.437Z,73.12
2022-08-30T08:12:48.385Z,73.12
2022-08-30T08:13:53.304Z,73.12
2022-08-30T08:14:49.317Z,67.50
2022-08-30T08:15:48.357Z,73.12
2022-08-30T08:16:48.309Z,78.75
2022-08-30T08:17:48.281Z,78.75
2022-08-30T08:18:48.277Z,73.12
2022-08-30T08:19:48.263Z,67.50
2022-08-30T08:20:48.289Z,67.50
2022-08-30T08:21:50.439Z,67.50
2022-08-30T08:22:49.236Z,67.50
2022-08-30T08:23:48.241Z,78.75
2022-08-30T08:24:48.211Z,84.38
2022-08-30T08:25:48.206Z,84.38
2022-08-30T08:26:48.216Z,84.38
2022-08-30T08:27:48.181Z,78.75
2022-08-30T08:28:48.173Z,78.75
2022-08-30T08:29:48.165Z,84.38
2022-08-30T08:30:48.467Z,84.38
2022-08-30T08:31:48.189Z,84.38
2022-08-30T08:32:48.147Z,84.38
2022-08-30T08:33:48.141Z,90.00
2022-08-30T08:34:48.118Z,90.00
2022-08-30T08:35:48.115Z,90.00
2022-08-30T08:36:48.088Z,90.00
2022-08-30T08:37:48.092Z,90.00
2022-08-30T08:38:48.069Z,90.00
2022-08-30T08:39:48.055Z,90.00
2022-08-30T08:40:48.046Z,90.00
2022-08-30T08:41:48.033Z,90.00
2022-08-30T08:42:48.064Z,90.00
2022-08-30T08:43:48.018Z,95.62
2022-08-30T08:45:48.004Z,95.62
2022-08-30T08:46:47.983Z,95.62
2022-08-30T08:47:47.984Z,90.00
2022-08-30T08:48:59.607Z,90.00
2022-08-30T08:49:48.966Z,90.00
2022-08-30T08:50:47.943Z,90.00
2022-08-30T08:51:47.927Z,78.75
2022-08-30T08:52:47.960Z,78.75
2022-08-30T08:53:47.935Z,78.75
2022-08-30T08:54:47.906Z,90.00
2022-08-30T08:56:47.878Z,90.00
2022-08-30T08:57:47.864Z,73.12
2022-08-30T08:58:47.881Z,73.12
2022-08-30T08:59:47.846Z,73.12
2022-08-30T09:00:47.840Z,73.12
2022-08-30T09:01:47.868Z,73.12
2022-08-30T09:02:47.819Z,90.00
2022-08-30T09:03:47.814Z,90.00
2022-08-30T09:04:47.868Z,90.00
2022-08-30T09:05:47.785Z,95.62
2022-08-30T09:06:47.770Z,90.00
2022-08-30T09:07:47.763Z,84.38
2022-08-30T09:08:47.776Z,78.75
2022-08-30T09:09:47.744Z,73.12
2022-08-30T09:10:50.902Z,90.00
2022-08-30T09:11:47.726Z,90.00
2022-08-30T09:12:47.786Z,84.38
2022-08-30T09:13:47.722Z,84.38
2022-08-30T09:14:47.694Z,90.00
2022-08-30T09:15:53.706Z,95.62
2022-08-30T09:16:48.673Z,101.25
2022-08-30T09:17:47.664Z,95.62
2022-08-30T09:18:50.240Z,95.62
2022-08-30T09:19:48.671Z,101.25
2022-08-30T09:20:47.628Z,101.25
2022-08-30T09:21:47.620Z,101.25
2022-08-30T09:22:48.621Z,101.25
2022-08-30T09:23:47.614Z,101.25
2022-08-30T09:24:47.585Z,101.25
2022-08-30T09:25:47.610Z,101.25
2022-08-30T09:26:47.576Z,101.25
2022-08-30T09:27:47.578Z,101.25
2022-08-30T09:29:48.540Z,106.88
2022-08-30T09:30:47.570Z,106.88
2022-08-30T09:31:47.518Z,106.88
2022-08-30T09:32:47.505Z,106.88
2022-08-30T09:33:47.513Z,106.88
2022-08-30T09:34:47.492Z,106.88
2022-08-30T09:35:47.499Z,106.88
2022-08-30T09:36:47.476Z,106.88
2022-08-30T09:37:47.473Z,106.88
2022-08-30T09:38:47.483Z,106.88
2022-08-30T09:39:47.434Z,112.50
2022-08-30T09:40:47.433Z,112.50
2022-08-30T09:41:47.414Z,112.50
2022-08-30T09:42:47.405Z,112.50
2022-08-30T09:43:47.417Z,112.50
2022-08-30T09:44:47.387Z,112.50
2022-08-30T09:45:47.438Z,112.50
2022-08-30T09:46:47.361Z,112.50
2022-08-30T09:47:47.349Z,112.50
2022-08-30T09:48:47.430Z,112.50
2022-08-30T09:49:47.339Z,112.50
2022-08-30T09:50:47.348Z,112.50
2022-08-30T09:51:47.324Z,123.75
2022-08-30T09:52:49.945Z,118.12
2022-08-30T09:54:07.363Z,118.12
2022-08-30T09:54:48.290Z,118.12
2022-08-30T09:55:47.269Z,118.12
2022-08-30T09:56:47.256Z,118.12
2022-08-30T09:57:47.251Z,118.12
2022-08-30T09:58:47.296Z,118.12
2022-08-30T09:59:47.238Z,118.12
2022-08-30T10:00:47.235Z,118.12
2022-08-30T10:01:47.218Z,118.12
2022-08-30T10:02:47.194Z,118.12
2022-08-30T10:03:47.198Z,118.12
2022-08-30T10:04:47.173Z,118.12
2022-08-30T10:05:47.168Z,118.12
2022-08-30T10:06:47.172Z,118.12
2022-08-30T10:07:47.208Z,118.12
2022-08-30T10:08:47.170Z,118.12
2022-08-30T10:09:47.127Z,118.12
2022-08-30T10:10:47.123Z,118.12
2022-08-30T10:11:47.103Z,118.12
2022-08-30T10:12:47.102Z,118.12
2022-08-30T10:13:47.084Z,118.12
2022-08-30T10:14:47.085Z,118.12
2022-08-30T10:15:47.062Z,118.12
2022-08-30T10:16:47.047Z,118.12
2022-08-30T10:17:47.053Z,118.12
2022-08-30T10:18:47.045Z,118.12
2022-08-30T10:19:47.053Z,118.12
2022-08-30T10:20:47.058Z,118.12
2022-08-30T10:21:47.007Z,118.12
2022-08-30T10:22:46.989Z,123.75
2022-08-30T10:23:46.978Z,123.75
2022-08-30T10:24:47.006Z,123.75
2022-08-30T10:25:46.957Z,123.75
2022-08-30T10:26:46.949Z,123.75
2022-08-30T10:27:46.942Z,123.75
2022-08-30T10:28:47.150Z,123.75
2022-08-30T10:29:46.972Z,123.75
2022-08-30T10:30:46.908Z,123.75
2022-08-30T10:31:46.924Z,123.75
2022-08-30T10:32:46.903Z,123.75
2022-08-30T10:33:46.904Z,129.38
2022-08-30T10:34:46.895Z,129.38
2022-08-30T10:35:46.857Z,129.38
2022-08-30T10:36:46.847Z,129.38
2022-08-30T10:37:46.853Z,129.38
2022-08-30T10:38:46.825Z,123.75
2022-08-30T10:39:46.841Z,123.75
2022-08-30T10:40:46.823Z,129.38
2022-08-30T10:41:46.821Z,129.38
2022-08-30T10:42:46.786Z,129.38
2022-08-30T10:43:46.815Z,129.38
2022-08-30T10:44:46.769Z,129.38
2022-08-30T10:45:46.754Z,135.00
2022-08-30T10:46:46.754Z,135.00
2022-08-30T10:47:46.732Z,135.00
2022-08-30T10:48:47.530Z,135.00
2022-08-30T10:49:46.747Z,135.00
2022-08-30T10:50:46.723Z,135.00
2022-08-30T10:51:46.715Z,135.00
2022-08-30T10:52:46.690Z,135.00
2022-08-30T10:53:46.675Z,135.00
2022-08-30T10:54:46.697Z,129.38
2022-08-30T10:55:50.026Z,135.00
2022-08-30T10:56:46.639Z,135.00
2022-08-30T10:57:46.633Z,135.00
2022-08-30T10:58:46.627Z,135.00
2022-08-30T10:59:46.634Z,140.62
2022-08-30T11:00:46.692Z,140.62
2022-08-30T11:01:47.016Z,140.62
2022-08-30T11:02:46.582Z,140.62
2022-08-30T11:03:46.581Z,135.00
2022-08-30T11:04:46.581Z,140.62
2022-08-30T11:05:46.576Z,146.25
2022-08-30T11:06:47.188Z,140.62
2022-08-30T11:07:46.532Z,140.62
2022-08-30T11:08:46.524Z,140.62
2022-08-30T11:09:46.527Z,151.88
2022-08-30T11:10:49.498Z,146.25
2022-08-30T11:11:46.549Z,146.25
2022-08-30T11:12:46.475Z,146.25
2022-08-30T11:13:46.482Z,151.88
2022-08-30T11:14:46.482Z,157.50
2022-08-30T11:15:46.446Z,151.88
2022-08-30T11:16:46.456Z,146.25
2022-08-30T11:17:46.475Z,157.50
2022-08-30T11:18:51.155Z,157.50
2022-08-30T11:19:47.435Z,157.50
2022-08-30T11:20:46.394Z,157.50
2022-08-30T11:21:46.385Z,157.50
2022-08-30T11:22:46.381Z,163.12
2022-08-30T11:23:46.385Z,157.50
2022-08-30T11:24:46.396Z,163.12
2022-08-30T11:25:46.460Z,163.12
2022-08-30T11:26:47.336Z,163.12
2022-08-30T11:27:46.340Z,163.12
2022-08-30T11:28:46.311Z,163.12
2022-08-30T11:29:46.343Z,163.12
2022-08-30T11:30:46.293Z,163.12
2022-08-30T11:31:47.520Z,163.12
2022-08-30T11:32:46.274Z,168.75
2022-08-30T11:33:46.406Z,168.75
2022-08-30T11:34:46.294Z,168.75
2022-08-30T11:35:48.634Z,168.75
2022-08-30T11:36:46.391Z,168.75
2022-08-30T11:37:46.250Z,168.75
2022-08-30T11:38:46.216Z,174.38
2022-08-30T11:39:46.220Z,174.38
2022-08-30T11:40:46.193Z,174.38
2022-08-30T11:41:46.377Z,174.38
2022-08-30T11:42:46.176Z,174.38
2022-08-30T11:43:46.162Z,174.38
2022-08-30T11:44:47.351Z,180.00
2022-08-30T11:45:46.189Z,180.00
2022-08-30T11:46:46.138Z,180.00
2022-08-30T11:47:46.143Z,180.00
2022-08-30T11:48:53.777Z,180.00
2022-08-30T11:49:47.125Z,180.00
2022-08-30T11:50:48.383Z,180.00
2022-08-30T11:52:28.607Z,180.00
2022-08-30T11:52:48.880Z,185.62
2022-08-30T11:53:46.067Z,185.62
2022-08-30T11:54:48.805Z,180.00
2022-08-30T11:55:46.053Z,180.00
2022-08-30T11:56:46.054Z,174.38
2022-08-30T11:57:46.033Z,185.62
2022-08-30T11:58:46.012Z,185.62
2022-08-30T11:59:46.030Z,185.62
2022-08-30T12:00:51.514Z,180.00
2022-08-30T12:01:51.235Z,174.38
2022-08-30T12:02:47.156Z,180.00
2022-08-30T12:03:46.158Z,180.00
2022-08-30T12:04:45.994Z,185.62
2022-08-30T12:05:45.961Z,191.25
2022-08-30T12:06:45.936Z,191.25
2022-08-30T12:07:45.931Z,191.25
2022-08-30T12:08:47.285Z,196.88
2022-08-30T12:09:45.918Z,191.25
2022-08-30T12:10:45.917Z,196.88
2022-08-30T12:11:45.892Z,196.88
2022-08-30T12:12:45.879Z,196.88
2022-08-30T12:13:45.866Z,196.88
2022-08-30T12:14:45.854Z,202.50
2022-08-30T12:15:45.859Z,196.88
2022-08-30T12:16:45.928Z,196.88
2022-08-30T12:17:45.842Z,196.88
2022-08-30T12:18:45.820Z,202.50
2022-08-30T12:19:50.347Z,202.50
2022-08-30T12:20:45.872Z,202.50
2022-08-30T12:21:45.782Z,208.12
2022-08-30T12:22:45.777Z,208.12
2022-08-30T12:23:45.768Z,208.12
2022-08-30T12:24:45.753Z,202.50
2022-08-30T12:25:45.771Z,202.50
2022-08-30T12:26:45.737Z,202.50
2022-08-30T12:27:45.740Z,202.50
2022-08-30T12:28:45.716Z,208.12
2022-08-30T12:29:45.724Z,202.50
2022-08-30T12:30:46.502Z,208.12
2022-08-30T12:31:45.755Z,208.12
2022-08-30T12:32:45.700Z,213.75
2022-08-30T12:33:45.668Z,213.75
2022-08-30T12:34:45.661Z,213.75
2022-08-30T12:35:45.666Z,208.12
2022-08-30T12:36:45.640Z,213.75
2022-08-30T12:37:45.632Z,230.62
2022-08-30T12:38:45.644Z,230.62
2022-08-30T12:39:45.614Z,241.88
2022-08-30T12:40:46.656Z,236.25
2022-08-30T12:41:45.591Z,247.50
2022-08-30T12:42:45.582Z,253.12
2022-08-30T12:43:45.563Z,253.12
2022-08-30T12:44:45.558Z,236.25
2022-08-30T12:45:45.622Z,247.50
2022-08-30T12:46:46.531Z,247.50
2022-08-30T12:47:45.516Z,247.50
2022-08-30T12:48:45.508Z,225.00
2022-08-30T12:49:45.531Z,236.25
2022-08-30T12:50:45.536Z,219.38
2022-08-30T12:51:45.487Z,213.75
2022-08-30T12:52:45.470Z,180.00
2022-08-30T12:53:45.510Z,174.38
2022-08-30T12:54:45.462Z,225.00
2022-08-30T12:55:45.471Z,236.25
2022-08-30T12:56:49.381Z,241.88
2022-08-30T12:57:45.455Z,247.50
2022-08-30T12:58:45.412Z,247.50